Ellisboro, North Carolina
Current Conditions -  °F | °C
As of 2:15 PM on Saturday 20 Dec 2014 (Local Time) from KSIF Reporting Station
Overcast Overcast  
Wind Chill: 38°   Ceiling: 6500
Heat Index: 38°   Visibility: 10mi
Dew Point: 30°   Wind: 0mph
Humidity: 72%   Direction: NA
Pressure: 30.22"   Gusts: NA
Location:  36.3697°N, 79.9626°W
Report Text: KSIF 201915Z AUTO 00000KT 10SM SCT050 OVC065 04/M01 A3022 RMK AO2 T00351012
Loading
Personal Weather Stations






























Interactive Weather Map New forecast layout! Learn more

10-Day Weather Forecast

Advertisements
Track Severe Weather on mobile